Time;durP1;ratioP1;P1;durP2;ratioP2;P2;SDS_P1;SDS_P2;PMS_P1;PMS_P2;Temp;Humidity;BMP_temperature;BMP_pressure;BME280_temperature;BME280_humidity;BME280_pressure;Samples;Min_cycle;Max_cycle;Signal;HPM_P1;HPM_P2
2023/08/26 00:00:02;;;;;;;10.82;7.95;;;19.90;99.90;;;;;;4904469;29;20024;-86
2023/08/26 00:02:27;;;;;;;9.40;8.18;;;19.90;99.90;;;;;;4905319;29;20554;-84
2023/08/26 00:04:53;;;;;;;12.07;7.72;;;19.90;99.90;;;;;;4905934;29;20108;-86
2023/08/26 00:07:18;;;;;;;10.85;8.10;;;19.90;99.90;;;;;;4902452;29;20028;-85
2023/08/26 00:09:44;;;;;;;14.25;8.32;;;19.80;99.90;;;;;;4902025;29;20424;-86
2023/08/26 00:12:09;;;;;;;10.32;7.85;;;19.80;99.90;;;;;;4904127;29;20028;-84
2023/08/26 00:14:35;;;;;;;10.88;7.90;;;19.80;99.90;;;;;;4902233;29;20472;-84
2023/08/26 00:17:00;;;;;;;10.25;7.97;;;19.80;99.90;;;;;;4905040;29;20361;-85
2023/08/26 00:19:26;;;;;;;10.50;8.20;;;19.80;99.90;;;;;;4903948;29;20037;-86
2023/08/26 00:21:52;;;;;;;10.23;8.85;;;19.70;99.90;;;;;;4901158;29;20108;-84
2023/08/26 00:24:18;;;;;;;13.20;7.93;;;19.70;99.90;;;;;;4902527;29;20028;-85
2023/08/26 00:26:43;;;;;;;10.27;6.95;;;19.70;99.90;;;;;;4900446;29;20065;-85
2023/08/26 00:29:09;;;;;;;10.82;8.27;;;19.70;99.90;;;;;;4904014;29;20087;-85
2023/08/26 00:31:34;;;;;;;8.45;7.55;;;19.70;99.90;;;;;;4905893;29;20024;-84
2023/08/26 00:34:02;;;;;;;10.68;7.10;;;19.70;99.90;;;;;;4904668;29;20035;-85
2023/08/26 00:36:28;;;;;;;12.52;8.23;;;19.70;99.90;;;;;;4902950;29;20073;-86
2023/08/26 00:38:54;;;;;;;11.70;7.50;;;19.70;99.90;;;;;;4902849;29;20490;-85
2023/08/26 00:41:19;;;;;;;10.93;7.78;;;19.70;99.90;;;;;;4901658;29;20032;-85
2023/08/26 00:43:46;;;;;;;13.20;8.15;;;19.70;99.90;;;;;;4904160;29;20477;-86
2023/08/26 00:46:13;;;;;;;11.30;8.20;;;19.70;99.90;;;;;;4903976;29;20088;-85
2023/08/26 00:48:38;;;;;;;9.32;7.32;;;19.70;99.90;;;;;;4900667;29;20104;-85
2023/08/26 00:51:05;;;;;;;9.20;7.57;;;19.60;99.90;;;;;;4900422;29;20040;-84
2023/08/26 00:53:31;;;;;;;10.35;8.05;;;19.60;99.90;;;;;;4903693;29;20028;-85
2023/08/26 00:55:56;;;;;;;14.45;8.18;;;19.60;99.90;;;;;;4902586;29;20031;-85
2023/08/26 00:58:23;;;;;;;9.68;7.05;;;19.60;99.90;;;;;;4899293;29;20040;-85
2023/08/26 01:00:48;;;;;;;10.23;7.30;;;19.60;99.90;;;;;;4899686;29;20104;-85
2023/08/26 01:03:14;;;;;;;10.65;7.55;;;19.60;99.90;;;;;;4899713;29;20043;-85
2023/08/26 01:05:40;;;;;;;8.85;7.57;;;19.60;99.90;;;;;;4902227;29;20122;-84
2023/08/26 01:08:06;;;;;;;11.32;7.68;;;19.60;99.90;;;;;;4902073;29;20036;-85
2023/08/26 01:10:40;;;;;;;11.20;8.18;;;19.60;99.90;;;;;;4901476;29;20119;-85
2023/08/26 01:13:11;;;;;;;14.38;8.48;;;19.60;99.90;;;;;;4899440;29;20111;-84
2023/08/26 01:15:42;;;;;;;14.65;9.70;;;19.60;99.90;;;;;;4899545;29;20036;-85
2023/08/26 01:18:09;;;;;;;12.68;7.10;;;19.60;99.90;;;;;;4900267;29;20768;-85
2023/08/26 01:20:36;;;;;;;10.60;7.75;;;19.60;99.90;;;;;;4903096;29;20044;-85
2023/08/26 01:23:07;;;;;;;12.32;8.60;;;19.60;99.90;;;;;;4902344;29;20031;-85
2023/08/26 01:25:33;;;;;;;10.98;7.35;;;19.60;99.90;;;;;;4903838;29;20623;-84
2023/08/26 01:27:59;;;;;;;10.88;6.82;;;19.60;99.90;;;;;;4903102;29;20052;-84
2023/08/26 01:30:27;;;;;;;10.45;7.07;;;19.60;99.90;;;;;;4902622;29;20028;-84
2023/08/26 01:33:18;;;;;;;10.98;7.22;;;19.60;99.90;;;;;;4901617;29;20024;-84
2023/08/26 01:35:47;;;;;;;10.65;8.18;;;19.70;99.90;;;;;;4901174;29;20031;-85
2023/08/26 01:38:16;;;;;;;12.48;7.88;;;19.70;99.90;;;;;;4898894;29;20036;-85
2023/08/26 01:40:49;;;;;;;14.23;8.23;;;19.70;99.90;;;;;;4901085;29;20031;-84
2023/08/26 01:43:15;;;;;;;10.98;7.85;;;19.70;99.90;;;;;;4901052;29;20100;-84
2023/08/26 01:45:41;;;;;;;12.07;7.82;;;19.60;99.90;;;;;;4903415;29;20036;-85
2023/08/26 01:48:06;;;;;;;10.85;8.60;;;19.60;99.90;;;;;;4901954;29;20983;-83
2023/08/26 01:50:32;;;;;;;11.23;7.35;;;19.60;99.90;;;;;;4900923;29;20028;-84
2023/08/26 01:52:57;;;;;;;9.35;6.40;;;19.60;99.90;;;;;;4901125;29;20033;-85
2023/08/26 01:55:23;;;;;;;16.48;6.07;;;19.50;99.90;;;;;;4901248;29;20039;-83
2023/08/26 01:57:48;;;;;;;8.27;5.70;;;19.50;99.90;;;;;;4904004;29;20053;-84
2023/08/26 02:00:15;;;;;;;9.35;6.30;;;19.50;99.90;;;;;;4903946;29;20132;-84
2023/08/26 02:02:41;;;;;;;9.38;6.05;;;19.50;99.90;;;;;;4900188;29;20116;-83
2023/08/26 02:05:07;;;;;;;11.30;6.00;;;19.50;99.90;;;;;;4901997;29;20456;-83
2023/08/26 02:07:32;;;;;;;11.43;6.70;;;19.40;99.90;;;;;;4897486;29;20055;-83
2023/08/26 02:09:58;;;;;;;10.98;6.55;;;19.30;99.90;;;;;;4900692;29;20030;-83
2023/08/26 02:12:24;;;;;;;9.80;6.00;;;19.30;99.90;;;;;;4900121;29;20044;-84
2023/08/26 02:14:49;;;;;;;13.70;6.65;;;19.30;99.90;;;;;;4898043;29;20023;-83
2023/08/26 02:17:14;;;;;;;8.00;5.75;;;19.20;99.90;;;;;;4898557;29;20106;-83
2023/08/26 02:19:40;;;;;;;10.23;5.50;;;19.20;99.90;;;;;;4899356;29;20040;-85
2023/08/26 02:22:06;;;;;;;7.40;5.60;;;19.20;99.90;;;;;;4900609;29;20032;-84
2023/08/26 02:24:31;;;;;;;10.38;5.07;;;19.10;99.90;;;;;;4899783;29;20079;-84
2023/08/26 02:26:57;;;;;;;8.40;5.07;;;19.10;99.90;;;;;;4898589;29;20037;-84
2023/08/26 02:29:22;;;;;;;6.40;4.30;;;19.10;99.90;;;;;;4900605;29;20051;-83
2023/08/26 02:31:48;;;;;;;10.55;4.55;;;19.00;99.90;;;;;;4897390;29;20048;-85
2023/08/26 02:34:13;;;;;;;6.80;4.28;;;19.00;99.90;;;;;;4898773;29;20044;-83
2023/08/26 02:36:39;;;;;;;6.05;4.45;;;19.00;99.90;;;;;;4901609;29;20044;-83
2023/08/26 02:39:04;;;;;;;5.68;4.13;;;18.90;99.90;;;;;;4900630;29;20020;-84
2023/08/26 02:41:30;;;;;;;9.82;4.25;;;18.80;99.90;;;;;;4902340;29;20167;-84
2023/08/26 02:43:55;;;;;;;5.97;4.18;;;18.80;99.90;;;;;;4900458;29;20033;-84
2023/08/26 02:46:21;;;;;;;7.65;4.18;;;18.80;99.90;;;;;;4902833;29;20028;-84
2023/08/26 02:48:46;;;;;;;7.07;4.25;;;18.80;99.90;;;;;;4901871;29;20028;-85
2023/08/26 02:51:12;;;;;;;7.88;4.50;;;18.70;99.90;;;;;;4903070;29;20111;-86
2023/08/26 02:53:37;;;;;;;10.07;4.20;;;18.70;99.90;;;;;;4905503;29;20476;-85
2023/08/26 02:56:03;;;;;;;8.40;4.50;;;18.70;99.90;;;;;;4907484;29;20067;-85
2023/08/26 02:58:28;;;;;;;8.55;4.47;;;18.70;99.90;;;;;;4909022;29;20035;-85
2023/08/26 03:00:55;;;;;;;5.82;4.60;;;18.70;99.90;;;;;;4909621;29;20094;-83
2023/08/26 03:03:21;;;;;;;8.43;5.05;;;18.70;99.90;;;;;;4907944;29;20048;-85
2023/08/26 03:05:46;;;;;;;9.32;4.72;;;18.70;99.90;;;;;;4906958;29;20028;-85
2023/08/26 03:08:12;;;;;;;7.05;4.70;;;18.70;99.90;;;;;;4908832;29;20123;-84
2023/08/26 03:10:37;;;;;;;7.05;4.70;;;18.70;99.90;;;;;;4907405;29;20508;-84
2023/08/26 03:13:06;;;;;;;6.53;4.68;;;18.60;99.90;;;;;;4910787;29;20035;-84
2023/08/26 03:15:31;;;;;;;7.78;5.10;;;18.60;99.90;;;;;;4910091;29;20510;-83
2023/08/26 03:17:57;;;;;;;7.90;4.25;;;18.60;99.90;;;;;;4907106;29;20040;-84
2023/08/26 03:20:23;;;;;;;9.57;4.20;;;18.60;99.90;;;;;;4908380;29;20032;-83
2023/08/26 03:22:49;;;;;;;8.07;3.95;;;18.60;99.90;;;;;;4909980;29;20051;-84
2023/08/26 03:25:15;;;;;;;7.43;4.35;;;18.60;99.90;;;;;;4913000;29;20590;-84
2023/08/26 03:27:41;;;;;;;8.30;4.25;;;18.50;99.90;;;;;;4909661;29;20039;-84
2023/08/26 03:30:07;;;;;;;9.50;3.63;;;18.50;99.90;;;;;;4909526;29;21238;-84
2023/08/26 03:32:32;;;;;;;7.68;3.40;;;18.40;99.90;;;;;;4908749;29;20063;-84
2023/08/26 03:34:58;;;;;;;7.10;3.65;;;18.40;99.90;;;;;;4909160;29;20016;-83
2023/08/26 03:37:24;;;;;;;7.35;3.25;;;18.30;99.90;;;;;;4905587;29;20123;-84
2023/08/26 03:39:49;;;;;;;6.70;2.95;;;18.30;99.90;;;;;;4910511;29;20072;-85
2023/08/26 03:42:15;;;;;;;7.00;3.10;;;18.30;99.90;;;;;;4905603;29;20031;-84
2023/08/26 03:44:40;;;;;;;5.85;3.28;;;18.20;99.90;;;;;;4908933;29;20419;-85
2023/08/26 03:47:06;;;;;;;6.35;3.63;;;18.20;99.90;;;;;;4905746;29;20732;-85
2023/08/26 03:49:31;;;;;;;5.18;3.50;;;18.20;99.90;;;;;;4908683;29;20111;-84
2023/08/26 03:51:57;;;;;;;6.63;3.55;;;18.10;99.90;;;;;;4905538;29;20089;-85
2023/08/26 03:54:23;;;;;;;6.72;3.38;;;18.10;99.90;;;;;;4905245;29;20059;-85
2023/08/26 03:56:48;;;;;;;6.75;3.60;;;18.10;99.90;;;;;;4904929;29;20096;-85
2023/08/26 03:59:14;;;;;;;8.40;3.75;;;18.10;99.90;;;;;;4903591;29;20133;-85
2023/08/26 04:01:40;;;;;;;4.93;3.35;;;18.10;99.90;;;;;;4905793;29;20044;-85
2023/08/26 04:04:05;;;;;;;5.43;3.63;;;18.10;99.90;;;;;;4900999;29;20060;-84
2023/08/26 04:06:31;;;;;;;8.57;3.90;;;18.10;99.90;;;;;;4901550;29;20029;-87
2023/08/26 04:08:57;;;;;;;6.50;3.78;;;18.10;99.90;;;;;;4902183;29;20392;-86
2023/08/26 04:11:22;;;;;;;5.97;3.70;;;18.10;99.90;;;;;;4902326;29;20243;-84
2023/08/26 04:13:48;;;;;;;5.47;3.85;;;18.10;99.90;;;;;;4904756;29;20116;-84
2023/08/26 04:16:15;;;;;;;12.48;4.05;;;18.10;99.90;;;;;;4905800;29;20059;-85
2023/08/26 04:18:42;;;;;;;10.43;4.28;;;18.00;99.90;;;;;;4902669;29;20033;-87
2023/08/26 04:21:09;;;;;;;5.20;3.63;;;18.00;99.90;;;;;;4902349;29;20554;-84
2023/08/26 04:23:34;;;;;;;5.32;3.40;;;18.00;99.90;;;;;;4905606;29;20487;-85
2023/08/26 04:26:00;;;;;;;5.40;3.88;;;18.10;99.90;;;;;;4902780;29;20032;-84
2023/08/26 04:28:26;;;;;;;5.50;3.63;;;18.10;99.90;;;;;;4903994;29;20043;-85
2023/08/26 04:30:52;;;;;;;5.85;3.55;;;18.10;99.90;;;;;;4902303;29;20047;-84
2023/08/26 04:33:18;;;;;;;7.28;4.13;;;18.10;99.90;;;;;;4900752;29;20727;-85
2023/08/26 04:35:44;;;;;;;7.43;3.90;;;18.10;99.90;;;;;;4902763;29;20036;-85
2023/08/26 04:38:09;;;;;;;7.32;4.13;;;18.10;99.90;;;;;;4903136;29;20024;-85
2023/08/26 04:40:35;;;;;;;6.55;4.13;;;18.10;99.90;;;;;;4902974;29;20059;-85
2023/08/26 04:43:03;;;;;;;4.40;3.85;;;18.10;99.90;;;;;;4903115;29;20024;-84
2023/08/26 04:45:29;;;;;;;6.63;4.53;;;18.10;99.90;;;;;;4902424;29;20967;-84
2023/08/26 04:47:54;;;;;;;7.70;3.83;;;18.10;99.90;;;;;;4902488;29;20143;-85
2023/08/26 04:50:20;;;;;;;8.63;4.35;;;18.10;99.90;;;;;;4902419;29;20139;-84
2023/08/26 04:52:46;;;;;;;4.78;3.95;;;18.10;99.90;;;;;;4902689;29;20043;-84
2023/08/26 04:55:11;;;;;;;7.75;4.10;;;18.20;99.90;;;;;;4901116;29;20036;-84
2023/08/26 04:57:37;;;;;;;7.22;3.95;;;18.20;99.90;;;;;;4900629;29;20136;-78
2023/08/26 05:00:08;;;;;;;6.13;3.67;;;18.20;99.90;;;;;;4898659;29;20028;-79
2023/08/26 05:02:34;;;;;;;5.47;4.30;;;18.20;99.90;;;;;;4900173;29;20138;-79
2023/08/26 05:04:59;;;;;;;5.75;3.55;;;18.20;99.90;;;;;;4900353;29;20035;-79
2023/08/26 05:07:25;;;;;;;6.18;4.35;;;18.20;99.90;;;;;;4897274;29;20079;-78
2023/08/26 05:09:51;;;;;;;7.57;4.28;;;18.20;99.90;;;;;;4898946;29;20024;-79
2023/08/26 05:12:16;;;;;;;5.65;3.88;;;18.20;99.90;;;;;;4898461;29;20024;-79
2023/08/26 05:14:42;;;;;;;5.45;4.18;;;18.30;99.90;;;;;;4898856;29;20084;-80
2023/08/26 05:17:08;;;;;;;4.88;4.07;;;18.30;99.90;;;;;;4898608;29;20044;-79
2023/08/26 05:19:34;;;;;;;8.63;4.30;;;18.20;99.90;;;;;;4898083;29;20524;-79
2023/08/26 05:22:01;;;;;;;8.15;4.00;;;18.30;99.90;;;;;;4899388;29;20498;-79
2023/08/26 05:24:27;;;;;;;7.97;4.15;;;18.20;99.90;;;;;;4898151;29;20115;-79
2023/08/26 05:26:53;;;;;;;7.93;4.55;;;18.20;99.90;;;;;;4897150;29;20122;-79
2023/08/26 05:29:18;;;;;;;6.47;4.20;;;18.20;99.90;;;;;;4898774;29;20028;-79
2023/08/26 05:31:45;;;;;;;5.22;4.40;;;18.20;99.90;;;;;;4899443;29;20133;-79
2023/08/26 05:34:10;;;;;;;8.82;4.50;;;18.20;99.90;;;;;;4898479;29;20071;-79
2023/08/26 05:36:36;;;;;;;7.25;4.72;;;18.30;99.90;;;;;;4899262;29;20107;-79
2023/08/26 05:39:01;;;;;;;8.38;4.97;;;18.40;99.90;;;;;;4897307;29;20190;-79
2023/08/26 05:41:27;;;;;;;8.50;4.40;;;18.40;99.90;;;;;;4898273;29;20522;-79
2023/08/26 05:43:52;;;;;;;8.18;4.38;;;18.50;99.90;;;;;;4900322;29;20032;-79
2023/08/26 05:46:18;;;;;;;5.38;4.18;;;18.50;99.90;;;;;;4898747;29;20035;-80
2023/08/26 05:48:43;;;;;;;6.70;5.00;;;18.60;99.90;;;;;;4896329;29;20048;-79
2023/08/26 05:51:09;;;;;;;8.13;4.10;;;18.60;99.90;;;;;;4895981;29;20032;-79
2023/08/26 05:53:34;;;;;;;6.70;3.75;;;18.60;99.90;;;;;;4898132;29;20024;-79
2023/08/26 05:56:00;;;;;;;4.88;3.53;;;18.70;99.90;;;;;;4898683;29;20032;-79
2023/08/26 05:58:25;;;;;;;5.80;3.42;;;18.70;99.90;;;;;;4897642;29;20032;-78
2023/08/26 06:00:51;;;;;;;5.43;3.70;;;18.70;99.90;;;;;;4897113;29;20119;-80
2023/08/26 06:03:17;;;;;;;4.25;3.03;;;18.70;99.90;;;;;;4897385;29;20043;-79
2023/08/26 06:05:42;;;;;;;4.40;3.22;;;18.80;99.90;;;;;;4898370;29;20060;-79
2023/08/26 06:08:08;;;;;;;4.53;3.20;;;18.80;99.90;;;;;;4899697;29;20137;-78
2023/08/26 06:10:33;;;;;;;5.38;3.13;;;18.80;99.90;;;;;;4901690;29;20028;-79
2023/08/26 06:12:59;;;;;;;3.92;2.88;;;18.80;99.90;;;;;;4897113;29;21133;-78
2023/08/26 06:15:24;;;;;;;12.40;4.07;;;18.90;99.90;;;;;;4898082;29;20107;-82
2023/08/26 06:17:50;;;;;;;5.60;3.00;;;18.90;99.90;;;;;;4898121;29;20063;-78
2023/08/26 06:20:15;;;;;;;3.88;3.20;;;18.90;99.90;;;;;;4897235;29;20028;-79
2023/08/26 06:22:45;;;;;;;5.53;3.08;;;19.00;99.90;;;;;;4897681;29;20167;-79
2023/08/26 06:25:11;;;;;;;5.47;3.30;;;19.10;99.90;;;;;;4898478;29;20036;-79
2023/08/26 06:27:37;;;;;;;5.93;3.08;;;19.20;99.90;;;;;;4898692;29;20056;-79
2023/08/26 06:30:03;;;;;;;5.70;3.05;;;19.30;99.90;;;;;;4897244;29;20036;-79
2023/08/26 06:32:29;;;;;;;5.38;3.50;;;19.40;99.90;;;;;;4898299;29;20411;-79
2023/08/26 06:34:55;;;;;;;7.88;3.15;;;19.40;99.90;;;;;;4897366;29;20027;-81
2023/08/26 06:37:20;;;;;;;4.60;3.10;;;19.50;99.90;;;;;;4896706;29;20032;-79
2023/08/26 06:39:47;;;;;;;5.00;3.50;;;19.50;99.90;;;;;;4896860;29;20032;-80
2023/08/26 06:42:12;;;;;;;6.47;3.47;;;19.60;99.90;;;;;;4896845;29;20118;-79
2023/08/26 06:44:38;;;;;;;7.05;3.58;;;19.60;99.90;;;;;;4898415;29;20066;-79
2023/08/26 06:47:05;;;;;;;4.00;3.38;;;19.60;99.90;;;;;;4897868;29;20065;-79
2023/08/26 06:49:30;;;;;;;5.68;3.28;;;19.70;99.90;;;;;;4897294;29;20028;-80
2023/08/26 06:51:56;;;;;;;5.10;3.25;;;19.70;99.90;;;;;;4896433;29;20036;-79
2023/08/26 06:54:21;;;;;;;6.07;3.70;;;19.80;99.90;;;;;;4897371;29;20036;-79
2023/08/26 06:56:47;;;;;;;6.55;3.83;;;19.90;99.90;;;;;;4898593;29;20039;-80
2023/08/26 06:59:13;;;;;;;5.40;3.05;;;20.00;99.90;;;;;;4897511;29;20128;-81
2023/08/26 07:01:38;;;;;;;4.28;2.90;;;20.10;99.90;;;;;;4896934;29;20092;-79
2023/08/26 07:04:05;;;;;;;7.63;3.35;;;20.20;99.90;;;;;;4896205;29;20040;-79
2023/08/26 07:06:31;;;;;;;6.50;3.58;;;20.40;99.90;;;;;;4898729;29;20124;-80
2023/08/26 07:08:57;;;;;;;6.50;3.47;;;20.50;99.90;;;;;;4899444;29;20054;-79
2023/08/26 07:11:22;;;;;;;4.68;3.63;;;20.60;99.90;;;;;;4897644;29;20055;-79
2023/08/26 07:13:48;;;;;;;5.05;3.72;;;20.60;99.90;;;;;;4898574;29;20028;-79
2023/08/26 07:16:14;;;;;;;5.82;3.45;;;20.60;99.90;;;;;;4896843;29;20041;-79
2023/08/26 07:18:39;;;;;;;5.30;3.28;;;20.70;99.90;;;;;;4896364;29;20032;-80
2023/08/26 07:21:05;;;;;;;5.90;3.38;;;20.70;99.90;;;;;;4898553;29;20028;-79
2023/08/26 07:23:31;;;;;;;6.93;3.30;;;20.80;99.90;;;;;;4898589;29;20028;-79
2023/08/26 07:25:57;;;;;;;4.32;3.70;;;20.90;99.90;;;;;;4894978;29;20020;-79
2023/08/26 07:28:23;;;;;;;5.28;3.60;;;20.90;99.90;;;;;;4896122;29;21381;-79
2023/08/26 07:30:49;;;;;;;6.65;3.63;;;21.00;99.90;;;;;;4895241;29;20064;-79
2023/08/26 07:33:14;;;;;;;7.80;3.63;;;21.10;99.90;;;;;;4896385;29;20032;-79
2023/08/26 07:35:40;;;;;;;6.10;4.20;;;21.10;99.90;;;;;;4894241;29;20407;-79
2023/08/26 07:38:05;;;;;;;6.45;4.43;;;21.20;99.90;;;;;;4900011;29;20036;-79
2023/08/26 07:40:31;;;;;;;8.57;4.80;;;21.20;99.90;;;;;;4900016;29;20044;-78
2023/08/26 07:42:58;;;;;;;6.32;4.28;;;21.20;99.90;;;;;;4895764;29;20036;-80
2023/08/26 07:45:24;;;;;;;6.90;4.07;;;21.30;99.90;;;;;;4896482;29;20141;-79
2023/08/26 07:47:49;;;;;;;5.38;3.72;;;21.40;99.90;;;;;;4895880;29;20116;-80
2023/08/26 07:50:15;;;;;;;8.30;4.40;;;21.50;99.90;;;;;;4896230;29;20028;-75
2023/08/26 07:52:40;;;;;;;13.07;4.53;;;21.60;99.90;;;;;;4897115;29;20028;-78
2023/08/26 07:55:06;;;;;;;9.00;4.95;;;21.60;99.90;;;;;;4897388;29;20035;-79
2023/08/26 07:57:32;;;;;;;5.07;4.35;;;21.60;99.90;;;;;;4900508;29;20024;-79
2023/08/26 07:59:57;;;;;;;6.55;4.43;;;21.70;99.90;;;;;;4900394;29;20837;-82
2023/08/26 08:02:23;;;;;;;5.93;4.35;;;21.70;99.90;;;;;;4898288;29;20056;-79
2023/08/26 08:04:48;;;;;;;5.47;4.90;;;21.80;99.90;;;;;;4899973;29;20087;-78
2023/08/26 08:07:14;;;;;;;6.40;4.78;;;21.80;99.90;;;;;;4898500;29;20091;-77
2023/08/26 08:09:39;;;;;;;15.25;4.93;;;21.80;99.90;;;;;;4897533;29;20031;-77
2023/08/26 08:12:05;;;;;;;80.05;8.52;;;21.80;99.90;;;;;;4897622;29;20035;-77
2023/08/26 08:14:31;;;;;;;14.43;5.25;;;21.70;99.90;;;;;;4896376;29;20116;-77
2023/08/26 08:16:56;;;;;;;7.97;4.28;;;21.70;99.90;;;;;;4899072;29;20040;-77
2023/08/26 08:19:24;;;;;;;9.63;4.50;;;21.60;99.90;;;;;;4897593;29;20095;-77
2023/08/26 08:21:50;;;;;;;5.97;4.57;;;21.60;99.90;;;;;;4899152;29;20091;-77
2023/08/26 08:24:15;;;;;;;7.38;4.65;;;21.50;99.90;;;;;;4899358;29;20167;-77
2023/08/26 08:26:43;;;;;;;8.75;4.30;;;21.50;99.90;;;;;;4898998;29;20032;-78
2023/08/26 08:29:10;;;;;;;7.85;5.18;;;21.60;99.90;;;;;;4900859;29;20088;-78
2023/08/26 08:31:36;;;;;;;6.35;4.50;;;21.80;99.90;;;;;;4897776;29;20516;-78
2023/08/26 08:34:03;;;;;;;6.97;4.88;;;21.80;99.90;;;;;;4899452;29;20116;-80
2023/08/26 08:36:29;;;;;;;6.38;4.85;;;22.00;99.90;;;;;;4898311;29;20043;-78
2023/08/26 08:38:54;;;;;;;7.15;5.28;;;22.00;99.90;;;;;;4897815;29;20024;-79
2023/08/26 08:41:20;;;;;;;8.63;4.53;;;22.20;99.90;;;;;;4898314;29;20036;-78
2023/08/26 08:43:48;;;;;;;6.97;4.95;;;22.20;99.90;;;;;;4896309;29;20119;-79
2023/08/26 08:46:16;;;;;;;10.88;5.13;;;22.40;99.90;;;;;;4898817;29;20118;-78
2023/08/26 08:48:42;;;;;;;7.47;4.28;;;22.60;99.90;;;;;;4897806;29;20579;-78
2023/08/26 08:51:10;;;;;;;9.73;4.38;;;22.80;99.90;;;;;;4897953;29;21528;-78
2023/08/26 08:53:49;;;;;;;11.95;3.97;;;22.80;99.90;;;;;;4897473;29;21050;-78
2023/08/26 08:56:16;;;;;;;6.00;4.20;;;22.90;99.90;;;;;;4897457;29;20762;-78
2023/08/26 08:58:47;;;;;;;5.85;4.10;;;22.90;99.90;;;;;;4898845;29;20020;-78
2023/08/26 09:01:15;;;;;;;6.93;4.20;;;23.00;99.90;;;;;;4899028;29;20099;-78
2023/08/26 09:03:40;;;;;;;6.82;4.20;;;23.10;99.90;;;;;;4897449;29;20024;-78
2023/08/26 09:06:07;;;;;;;8.02;4.30;;;23.20;99.90;;;;;;4898797;29;20024;-78
2023/08/26 09:08:32;;;;;;;5.82;4.05;;;23.30;99.90;;;;;;4899119;29;20411;-76
2023/08/26 09:10:58;;;;;;;7.32;4.22;;;23.50;99.90;;;;;;4896031;29;20029;-78
2023/08/26 09:13:23;;;;;;;5.57;4.00;;;23.80;99.90;;;;;;4885826;29;20036;-78
2023/08/26 09:15:49;;;;;;;6.82;4.20;;;24.00;99.90;;;;;;4892006;29;20024;-78
2023/08/26 09:18:18;;;;;;;6.35;3.90;;;24.10;99.90;;;;;;4890833;29;20469;-78
2023/08/26 09:20:46;;;;;;;9.73;4.32;;;24.10;99.90;;;;;;4890545;29;20036;-78
2023/08/26 09:23:12;;;;;;;5.72;3.97;;;24.00;99.90;;;;;;4891021;29;20048;-83
2023/08/26 09:25:37;;;;;;;5.25;4.10;;;23.90;99.90;;;;;;4891184;29;20041;-77
2023/08/26 09:28:04;;;;;;;11.38;4.65;;;23.70;99.90;;;;;;4890374;29;20059;-78
2023/08/26 09:30:29;;;;;;;10.48;4.05;;;23.50;99.90;;;;;;4891227;29;20036;-78
2023/08/26 09:32:55;;;;;;;8.32;4.13;;;23.40;99.90;;;;;;4891527;29;20051;-78
2023/08/26 09:35:21;;;;;;;7.97;4.13;;;23.30;99.90;;;;;;4892241;29;20120;-78
2023/08/26 09:37:58;;;;;;;8.18;3.70;;;23.40;99.90;;;;;;4896646;29;20963;-78
2023/08/26 09:40:24;;;;;;;10.13;4.72;;;23.60;99.90;;;;;;4899297;29;20028;-77
2023/08/26 09:42:50;;;;;;;9.23;4.15;;;23.90;99.90;;;;;;4899744;29;20070;-77
2023/08/26 09:45:19;;;;;;;10.77;3.90;;;24.20;99.90;;;;;;4900144;29;20123;-77
2023/08/26 09:47:49;;;;;;;8.63;4.30;;;24.50;99.90;;;;;;4897798;29;20052;-78
2023/08/26 09:50:14;;;;;;;10.23;4.38;;;24.60;99.90;;;;;;4887228;29;20076;-77
2023/08/26 09:52:48;;;;;;;11.50;4.22;;;24.70;99.90;;;;;;4891692;29;20472;-79
2023/08/26 09:55:14;;;;;;;7.05;4.10;;;24.90;99.90;;;;;;4891592;29;20055;-79
2023/08/26 09:57:40;;;;;;;11.40;5.20;;;25.20;99.90;;;;;;4891861;29;20048;-79
2023/08/26 10:00:10;;;;;;;7.35;4.43;;;25.50;99.90;;;;;;4890814;29;20032;-78
2023/08/26 10:02:41;;;;;;;9.82;4.32;;;25.70;99.90;;;;;;4889763;29;20036;-79
2023/08/26 10:05:12;;;;;;;9.65;4.18;;;26.10;99.90;;;;;;4891501;29;20036;-78
2023/08/26 10:07:39;;;;;;;7.03;3.72;;;26.40;99.90;;;;;;4891800;29;20035;-78
2023/08/26 10:10:13;;;;;;;7.63;4.05;;;26.70;99.90;;;;;;4894576;29;20031;-81
2023/08/26 10:12:46;;;;;;;6.57;4.05;;;26.90;99.90;;;;;;4903077;29;20052;-81
2023/08/26 10:15:17;;;;;;;8.07;3.88;;;26.90;99.90;;;;;;4901363;29;20034;-81
2023/08/26 10:17:48;;;;;;;11.88;4.15;;;26.90;99.90;;;;;;4900946;29;20484;-80
2023/08/26 10:20:14;;;;;;;6.80;4.00;;;26.70;99.90;;;;;;4899077;29;20039;-80
2023/08/26 10:22:40;;;;;;;7.05;3.40;;;26.70;99.90;;;;;;4898892;29;20032;-76
2023/08/26 10:25:08;;;;;;;10.13;4.07;;;26.70;99.90;;;;;;4899244;29;20035;-77
2023/08/26 10:27:36;;;;;;;7.85;4.03;;;26.80;99.90;;;;;;4898200;29;20052;-79
2023/08/26 10:30:03;;;;;;;7.35;3.70;;;26.80;99.90;;;;;;4897753;29;20349;-79
2023/08/26 10:32:28;;;;;;;7.93;3.78;;;26.60;99.90;;;;;;4896717;29;20964;-79
2023/08/26 10:34:58;;;;;;;7.03;3.50;;;26.30;99.90;;;;;;4898279;29;20028;-78
2023/08/26 10:37:28;;;;;;;6.95;3.67;;;26.30;99.90;;;;;;4899992;29;20031;-81
2023/08/26 10:39:55;;;;;;;6.75;3.25;;;26.20;99.90;;;;;;4897680;29;20063;-78
2023/08/26 10:42:21;;;;;;;5.43;3.40;;;26.20;99.90;;;;;;4895296;29;20099;-78
2023/08/26 10:44:48;;;;;;;9.10;3.92;;;26.20;99.90;;;;;;4897227;29;20030;-78
2023/08/26 10:47:35;;;;;;;9.23;3.67;;;26.20;99.90;;;;;;4895330;29;20044;-78
2023/08/26 10:50:26;;;;;;;8.70;4.78;;;26.10;99.90;;;;;;4897739;29;20028;-79
2023/08/26 10:52:58;;;;;;;12.60;4.18;;;26.00;99.90;;;;;;4896953;29;20032;-79
2023/08/26 10:55:30;;;;;;;9.30;4.88;;;26.10;99.90;;;;;;4896685;29;20032;-78
2023/08/26 10:58:08;;;;;;;6.95;4.22;;;26.00;99.90;;;;;;4895753;29;20024;-78
2023/08/26 11:00:34;;;;;;;7.97;3.92;;;25.90;99.90;;;;;;4898388;29;20811;-81
2023/08/26 11:03:03;;;;;;;7.47;3.90;;;25.70;99.90;;;;;;4898460;29;20043;-78
2023/08/26 11:05:29;;;;;;;11.90;4.15;;;25.60;99.90;;;;;;4898604;29;20029;-77
2023/08/26 11:08:01;;;;;;;7.25;3.85;;;25.60;99.90;;;;;;4897061;29;20036;-78
2023/08/26 11:10:27;;;;;;;9.20;4.35;;;25.50;99.90;;;;;;4897762;29;20662;-78
2023/08/26 11:12:53;;;;;;;9.48;3.95;;;25.40;99.90;;;;;;4899003;29;20186;-78
2023/08/26 11:15:19;;;;;;;6.82;3.90;;;25.40;99.90;;;;;;4899774;29;20745;-78
2023/08/26 11:17:45;;;;;;;10.20;4.07;;;25.30;99.90;;;;;;4898084;29;20100;-78
2023/08/26 11:20:10;;;;;;;7.30;4.05;;;25.30;99.90;;;;;;4900463;29;20036;-79
2023/08/26 11:22:36;;;;;;;8.70;3.80;;;25.40;99.90;;;;;;4900718;29;20028;-79
2023/08/26 11:25:03;;;;;;;7.10;4.18;;;25.40;99.90;;;;;;4900395;29;20167;-79
2023/08/26 11:27:28;;;;;;;7.22;3.90;;;25.50;99.90;;;;;;4900754;29;21499;-79
2023/08/26 11:29:54;;;;;;;9.63;4.00;;;25.70;99.90;;;;;;4901090;29;20033;-79
2023/08/26 11:32:19;;;;;;;9.02;3.75;;;26.10;99.90;;;;;;4902062;29;20028;-79
2023/08/26 11:34:45;;;;;;;9.63;3.90;;;26.20;99.90;;;;;;4899892;29;21348;-79
2023/08/26 11:37:10;;;;;;;5.15;3.88;;;26.20;99.90;;;;;;4898646;29;20032;-78
2023/08/26 11:39:38;;;;;;;7.55;3.53;;;26.30;99.90;;;;;;4895917;29;20184;-79
2023/08/26 11:42:13;;;;;;;7.15;3.53;;;26.30;99.90;;;;;;4898128;29;20042;-78
2023/08/26 11:44:39;;;;;;;7.72;4.28;;;26.30;99.90;;;;;;4898267;29;20127;-79
2023/08/26 11:47:05;;;;;;;6.78;3.70;;;26.30;99.90;;;;;;4896591;29;20040;-78
2023/08/26 11:49:32;;;;;;;8.90;3.90;;;26.10;99.90;;;;;;4899285;29;20033;-78
2023/08/26 11:51:59;;;;;;;8.10;3.50;;;25.90;99.90;;;;;;4894738;29;20032;-77
2023/08/26 11:54:25;;;;;;;9.40;3.80;;;25.80;99.90;;;;;;4898947;29;20571;-78
2023/08/26 11:56:51;;;;;;;8.30;3.92;;;26.00;99.90;;;;;;4897320;29;20124;-78
2023/08/26 11:59:20;;;;;;;8.60;3.67;;;26.10;99.90;;;;;;4898087;29;20033;-77
2023/08/26 12:01:46;;;;;;;7.30;3.92;;;26.20;99.90;;;;;;4898092;29;20415;-77
2023/08/26 12:04:13;;;;;;;7.65;4.13;;;25.90;99.90;;;;;;4898697;29;20032;-77
2023/08/26 12:06:40;;;;;;;8.88;4.10;;;25.90;99.90;;;;;;4898188;29;20039;-77
2023/08/26 12:09:06;;;;;;;8.25;4.32;;;25.80;99.90;;;;;;4898306;29;20060;-77
2023/08/26 12:11:35;;;;;;;6.90;4.40;;;25.70;99.90;;;;;;4897692;29;20032;-77
2023/08/26 12:14:13;;;;;;;11.43;4.82;;;25.60;99.90;;;;;;4897948;29;20031;-76
2023/08/26 12:16:38;;;;;;;6.25;4.05;;;25.50;99.90;;;;;;4898380;29;20463;-77
2023/08/26 12:19:14;;;;;;;6.13;3.78;;;25.40;99.90;;;;;;4896569;29;20036;-77
2023/08/26 12:21:39;;;;;;;5.57;3.78;;;25.50;99.90;;;;;;4897571;29;20143;-78
2023/08/26 12:24:05;;;;;;;10.73;3.70;;;25.70;99.90;;;;;;4897401;29;20123;-77
2023/08/26 12:26:30;;;;;;;7.82;3.40;;;25.80;99.90;;;;;;4898114;29;20024;-76
2023/08/26 12:28:56;;;;;;;9.60;3.60;;;25.80;99.90;;;;;;4898093;29;20472;-78
2023/08/26 12:31:21;;;;;;;6.70;3.70;;;26.00;99.90;;;;;;4898246;29;20027;-78
2023/08/26 12:33:48;;;;;;;7.40;3.78;;;26.10;99.90;;;;;;4895204;29;20507;-78
2023/08/26 12:36:13;;;;;;;8.07;3.80;;;26.10;99.90;;;;;;4899395;29;20032;-77
2023/08/26 12:38:39;;;;;;;9.48;3.95;;;26.20;99.90;;;;;;4898610;29;20029;-78
2023/08/26 12:41:05;;;;;;;5.88;4.03;;;26.30;99.90;;;;;;4898976;29;20029;-77